Terminal Aerodrome Forecast
Issued by NWS Midland/Odessa, TX

Home | Current Version | Previous Version | Text Only | Print | Product List | Glossary On
Versions: 1 2 3 4 5 6 7 8 9 10 11 12 13 14 15 16 17 18 19 20 21 22
220
FTUS44 KMAF 280520
TAFMAF
TAF
KMAF 280520Z 2806/2906 22006KT P6SM SKC
     FM281200 20009KT P6SM SKC
     FM281900 11014G24KT P6SM SCT100 SCT250
     FM290200 10016KT P6SM OVC200=

USA.gov is the U.S. government's official web portal to all federal, state and local government web resources and services.